International TAF

Brunei, China, Hong Kong, Malaysia, Philippines, Taiwan

The availability of aerodrome forecasts from overseas locations is dependent on the regular international exchange of data. Some locations may at times be absent. If this problem persists, please advise webav@bom.gov.au

 back to top

ZSPD 28/02/2021 UTC

TAF ZSPD 280912Z 2812/0112 13004MPS 5000 -RA BR BKN003 OVC040
TX14/0106Z TN09/2821Z BECMG 0100/0102 33006MPS BKN006 OVC040

WIDD 28/02/2021 UTC

TAF WIDD 280500Z 2806/0106 05010KT 9999 SCT014

WAMM 28/02/2021 UTC

TAF AMD WAMM 280500Z 2806/0112 33008KT SCT021
TEMPO 2807/2809 5000 RA
BECMG 2812/14 VRB03KT

WBSB 28/02/2021 UTC

TAF WBSB 280500Z 2806/0112 34008KT 9999 SCT014
FEW015CB TEMPO 2806/2808 6000 SHRA
TEMPO 2810/2812 7000 -SHRA
BECMG 2814/2816 02004KT

WBKK 28/02/2021 UTC

TAF WBKK 280500Z 2806/0106 32005KT 9999 FEW014
TEMPO 2806/2810 5000 TSRA FEW010 FEW016CB
SCT035 BECMG 2810/2812 11005KT

WBGG 28/02/2021 UTC

TAF WBGG 280500Z 2806/0106 VRB03KT 9999 SCT020

VHHH 28/02/2021 UTC

TAF VHHH 280500Z 2806/0112 08010KT 9999 FEW015 SCT030 TX23/2806Z
TX25/0106Z TN20/2823Z TEMPO 0103/0109 27010KT

VMMC 28/02/2021 UTC

TAF VMMC 280500Z 2806/0112 08008KT 9000 FEW015 SCT030
TEMPO 2818/0102 4000 BR

ZGSZ 28/02/2021 UTC

TAF ZGSZ 280912Z 2812/0112 12004MPS 8000 SCT040 TX23/0106Z
TN18/2822Z BECMG 0103/0105 19004MPS

RCTP 28/02/2021 UTC

TAF RCTP 280500Z 2806/0112 02010KT 9999 FEW012 BKN015
TEMPO 2812/2818 05005KT SCT008 BKN009
TEMPO 2820/0102 02005KT 4000 BR FEW007 BKN008
TEMPO 0102/0106 33005KT 4000 BR FEW010 BKN011
TEMPO 0106/0112 26005KT FEW010 BKN032

RCKH 28/02/2021 UTC

TAF RCKH 280500Z 2806/0112 28008KT 7000 FEW015 SCT050
BECMG 2810/2812 34005KT
TEMPO 2819/0101 03005KT 4000 BR
BECMG 0101/0103 28008KT
TEMPO 0106/0112 33005KT

ZGGG 28/02/2021 UTC

TAF ZGGG 280901Z 2812/0112 18003MPS 8000 BKN030 TX24/0107Z
TN15/2822Z

ZBAA 28/02/2021 UTC

TAF ZBAA 280905Z 2812/0112 11004MPS 3500 -RASN FEW010 OVC030
TX03/0107Z TNM03/2822Z BECMG 2814/2815 2400 -SN BECMG 0100/0101 3500
BR

ZSSS 28/02/2021 UTC

TAF ZSSS 280914Z 2812/0112 13004MPS 5000 -RA BR BKN007 TX14/0106Z
TN09/2820Z BECMG 2822/2824 33005MPS BKN011

ZBTJ 28/02/2021 UTC

TAF ZBTJ 280901Z 2812/0112 06007MPS 2500 -RA BR SCT010 BKN030
TX04/0107Z TNM03/2822Z BECMG 2814/2815 1400 -RASN BR BKN010 OVC020
TEMPO 2818/2822 0700 SN BECMG 0101/0102 24003MPS 3000 BR BKN020

ZBYN 28/02/2021 UTC

TAF ZBYN 280915Z 2812/0112 35004MPS 1400 -RA BR FEW030 TX07/0107Z
TNM02/2822Z TEMPO 2822/0102 0700 -RASN FZFG BECMG 0100/0101 2000 BR
BECMG 0103/0104 3000

ZSHC 28/02/2021 UTC

TAF ZSHC 280903Z 2812/0112 09003MPS 3000 BR SCT010 BKN020
TX19/0106Z TN11/2821Z BECMG 2817/2818 1800 -SHRA SCT005 BKN010
BKN020
BECMG 0107/0108 35005G11MPS

ZSOF 28/02/2021 UTC

TAF ZSOF 280904Z 2812/0112 33004MPS 3000 -RA BR SCT010 BKN020
TX11/2822Z TN07/0112Z BECMG 2815/2816 2000 BKN010 BECMG 2818/2819
1400
BKN006 BECMG 0101/0102 2000 BKN010 BECMG 0103/0104 3000 BECMG
0106/0107
BKN016

ZWWW 28/02/2021 UTC

TAF ZWWW 280901Z 2812/0112 36003MPS 6000 NSC TXM06/0108Z
TNM14/2823Z BECMG 2813/2814 18003MPS BECMG 0102/0103 36003MPS

ZYTL 28/02/2021 UTC

TAF AMD ZYTL 280935Z 2812/0112 36004MPS 3000 -RA BR SCT008 BKN016
TX05/2812Z TNM03/0102Z TEMPO 2812/2814 2500 BECMG 2814/2815 2500 -SN
BR BKN010 BKN020 TEMPO 2815/2821 36009G15MPS 0700 SN SCT003 BKN008
BKN026 BECMG 2820/2821 36009G15MPS BECMG 0101/0102 5000 BR BKN026

RPLL 28/02/2021 UTC

TAF RPLL 280500Z 2806/0112 11009KT 9999 FEW025 SCT100 TX33/2806Z TN25/2821Z
TEMPO 2806/2812 -SHRA FEW022CB SCT023 BKN100 TEMPO 2812/2818 SCT023

RPVM 28/02/2021 UTC

TAF RPVM 280500Z 2806/0112 02006KT 9999 FEW020 SCT300 TEMPO 2806/2812 03007KT
9000 -TSRA FEW018CB FEW020 BKN100 TEMPO 2812/2818 04008KT FEW020

RPMZ 28/02/2021 UTC

TAF RPMZ 280500Z 2806/0106 08006KT 9999 FEW017 SCT300 TEMPO 2806/2812 23004KT
-SHRA FEW016CB FEW017 SCT090

Australian International

The availability of aerodrome forecasts from overseas locations is dependent on the regular international exchange of data. Some locations may at times be absent. If this problem persists, please advise webav@bom.gov.au

 back to top

YMML 28/02/2021 UTC

TAF YMML 280806Z 2809/0112
19008KT CAVOK
FM281200 23008KT 9999 SCT010
FM281800 26008KT 9999 SCT010 BKN020
FM282200 24010KT 9999 SCT025 BKN035
FM010300 21014KT 9999 BKN040
FM010600 18016KT 9999 -SHRA BKN030
FM010900 20012KT 9999 NSW BKN035
TEMPO 2816/2821 9999 BKN015
INTER 0106/0108 19015G25KT 5000 SHRA BKN020
RMK
T 22 18 15 14 Q 1008 1010 1011 1010
TAF3

YSSY 28/02/2021 UTC

TAF YSSY 280810Z 2809/0112
14010KT 9999 SCT020
FM281400 VRB03KT 9999 SCT020
FM281900 30005KT CAVOK
FM010000 01012KT CAVOK
FM010400 04017KT CAVOK
RMK
T 23 23 22 21 Q 1010 1012 1011 1009
TAF3

YBBN 28/02/2021 UTC

TAF YBBN 280812Z 2809/0112
02008KT 9999 SCT020
FM281500 24005KT 9999 SCT020
FM282300 04012KT 9999 SCT030
FM010900 03008KT 9999 SCT020
RMK
T 26 26 25 24 Q 1010 1011 1010 1009
TAF3

YSCB 28/02/2021 UTC

TAF YSCB 280805Z 2809/0106
30010KT CAVOK
FM281000 VRB03KT CAVOK
FM282200 31010KT CAVOK
FM010000 29018G28KT CAVOK
FM010500 29014KT CAVOK
PROB30 2818/2822 0500 FG
RMK FM282300 MOD TURB BLW 5000FT TL010200
T 22 17 15 13 Q 1012 1013 1012 1011
TAF3

YBCS 28/02/2021 UTC

TAF YBCS 280805Z 2809/0106
16010KT 9999 BKN040
FM281200 24008KT 9999 BKN030
FM282200 21012KT 9999 BKN030
INTER 2812/2821 3000 SHRA BKN015
INTER 0101/0106 3000 SHRA BKN015
RMK FM281200 MOD TURB BLW 5000FT
T 27 26 25 25 Q 1002 1003 1002 1000
TAF3

YBAS 28/02/2021 UTC

TAF YBAS 280503Z 2806/0106
14011KT CAVOK
FM281200 07009KT CAVOK
FM281800 35005KT CAVOK
FM010100 15013KT CAVOK
RMK
T 37 35 30 26 Q 1008 1009 1011 1011

YBMA 28/02/2021 UTC

TAF YBMA 280547Z 2806/2818
14010KT CAVOK
FM281000 07008KT CAVOK
RMK
T 38 34 31 29 Q 1004 1005 1007 1008

YPAD 28/02/2021 UTC

TAF YPAD 280800Z 2809/0112
15010KT CAVOK
FM282000 12008KT 9999 -SHRA NSC
FM010200 23010KT CAVOK
FM010600 15012KT CAVOK
RMK
T 21 17 16 16 Q 1011 1013 1012 1012
TAF3

YPDN 28/02/2021 UTC

TAF AMD YPDN 281035Z 2810/0112
32010KT 9999 SCT025
FM281200 31006KT 9999 SCT015
FM010200 30010KT 9999 SCT025
INTER 0104/0106 4000 SHRA BKN015
PROB30 TEMPO 0105/0109 VRB20G35KT 1000 TSRA BKN010 SCT020CB
RMK
T 27 28 27 26 Q 1007 1009 1008 1007
TAF3

YPTN 28/02/2021 UTC

TAF YPTN 280504Z 2806/0106
VRB05KT CAVOK
FM281900 29005KT 9999 FEW015
FM010000 26006KT CAVOK
RMK
T 35 33 28 26 Q 1005 1005 1008 1008

YPPH 28/02/2021 UTC

TAF YPPH 280809Z 2809/0112
14010KT CAVOK
FM281500 10020G30KT CAVOK
FM010100 09014KT 9999 -SHRA NSC
FM011000 10018G28KT 9999 -SHRA NSC
PROB30 INTER 2818/0112 VRB25G40KT 5000 TSRA FEW030 SCT090CB
RMK FM281500 MOD TURB BLW 3000FT TL010100
T 30 27 24 21 Q 1007 1008 1008 1008
TAF3

YPLM 28/02/2021 UTC

TAF AMD YPLM 280518Z 2805/0106
07012KT CAVOK
FM280700 27014KT CAVOK
FM281000 24010KT 9999 SCT025
FM010100 30010KT 9999 -SHRA SCT020
PROB30 TEMPO 0101/0106 VRB20G35KT 1000 TSRA BKN010 SCT050CB
RMK
T 30 32 27 26 Q 1007 1006 1007 1008

YCAR 28/02/2021 UTC

TAF YCAR 280247Z 2804/2812
23014KT 9999 SCT020
RMK
T 27 26 25 Q 1007 1007 1006

YPCC 28/02/2021 UTC

TAF YPCC 280517Z 2806/0106
32016KT 9999 -SHRA SCT015 BKN020
INTER 2806/0106 33020G30KT 2000 SHRA BKN008
PROB30 TEMPO 2806/0106 VRB25G35KT 1000 TSRA BKN010 SCT020CB
RMK
T 30 30 28 28 Q 1005 1004 1005 1007

YPPD 28/02/2021 UTC

TAF YPPD 280519Z 2806/0106
31017KT CAVOK
FM281200 27010KT CAVOK
FM281900 23010KT 9999 SCT020
FM010200 30014KT CAVOK
RMK
T 34 32 29 28 Q 1006 1005 1007 1008

YBTL 28/02/2021 UTC

TAF AMD YBTL 280618Z 2806/0106
20014KT 9999 -RA SCT020 BKN040
FM282200 17018KT 9999 -RA SCT030 BKN040
INTER 2806/2810 2000 RA BKN015
TEMPO 2810/2821 17020G30KT 2000 RA BKN010
INTER 2821/0106 17020G30KT 2000 RA BKN010
RMK FM280600 MOD TURB BLW 5000FT
T 23 25 26 26 Q 1004 1004 1005 1003

YMHB 28/02/2021 UTC

TAF YMHB 280805Z 2809/0106
10006KT 9999 FEW020 SCT030
FM281200 30005KT 9999 -SHRA SCT020 BKN030
FM282300 27010KT 9999 -SHRA SCT030 BKN050
TEMPO 2815/2821 4000 SHRA BKN015
INTER 2821/0100 4000 SHRA BKN015
INTER 0103/0106 5000 SHRA BKN020
RMK
T 17 16 16 15 Q 1010 1010 1008 1006
TAF3

YPXM 28/02/2021 UTC

TAF YPXM 280519Z 2806/0106
30010KT 9999 -SHRA BKN008
INTER 2806/0106 1000 SHRA BKN004
PROB30 TEMPO 2806/0106 VRB25G35KT 0500 TSRA BKN002 SCT015CB
RMK
T 27 26 25 24 Q 1009 1008 1009 1011

New Zealand

The availability of aerodrome forecasts from overseas locations is dependent on the regular international exchange of data. Some locations may at times be absent. If this problem persists, please advise webav@bom.gov.au

 back to top

NZAA 28/02/2021 UTC

TAF NZAA 280500Z 2806/0106 04012KT 9999 FEW040
BECMG 2807/2809 10005KT
BECMG 2822/0100 04015KT
TEMPO 0103/0106 4000 SHRA SCT030CB

NZWN 28/02/2021 UTC

TAF NZWN 280500Z 2806/0106 18010KT 9999 SCT060
BECMG 2809/2811 02010KT

NZCH 28/02/2021 UTC

TAF NZCH 280501Z 2806/0106 07012KT 9999 BKN012
TEMPO 2809/2821 BKN006
BECMG 2810/2812 VRB02KT
BECMG 2821/2823 07015KT SCT015
TEMPO 2823/0104 BKN014

YLHI 28/02/2021 UTC

TAF YLHI 281023Z 2812/0112
30007KT 9999 -SHRA SCT010 BKN020
FM010100 27008KT 9999 -SHRA SCT010 BKN030
TEMPO 2812/0106 3000 SHRA BKN008
RMK
T 23 23 23 24 Q 1011 1010 1009 1010

YSNF 28/02/2021 UTC

TAF YSNF 280521Z 2806/0106
10008KT 9999 SCT020
INTER 2812/2821 6000 -SHRA BKN015
RMK
T 23 22 21 21 Q 1012 1013 1013 1012

Indonesia, Malaysia, Myanmar, Singapore, Thailand, Vietnam

The availability of aerodrome forecasts from overseas locations is dependent on the regular international exchange of data. Some locations may at times be absent. If this problem persists, please advise webav@bom.gov.au

 back to top

WADA

TAF not available.

WAAA 28/02/2021 UTC

TAF WAAA 280500Z 2806/0112 29010KT 9000 SCT018 TEMPO 2806/2810 4000 TSRA FEW017CB
BECMG 2811/2813 11005KT 8000

WIII 28/02/2021 UTC

TAF WIII 280500Z 2806/0112 26010KT 9000 SCT020 TEMPO 2807/2810
29010G20KT 4000 -TSRA FEW018CB BKN020 BECMG 2812/2814 28005KT 5000 HZ
BECMG 0101/0103 29010KT 8000 NSW

WIHH 28/02/2021 UTC

TAF WIHH 280500Z 2806/0106 28010KT 6000 SCT020 TEMPO 2810/2813 4000 -RA BECMG 2815/2817
21004KT 5000 HZ

WIMM 28/02/2021 UTC

TAF WIMM 280500Z 2806/0106 36010KT 9999 SCT017
BECMG 2812/2814 23004KT 4000 HZ
BECMG 0102/0104 33008KT 9000

WIPP 28/02/2021 UTC

TAF WIPP 280500Z 2806/0106 03006KT 9999 SCT010
TEMPO 2808/2811 5000 -RA BKN010
TEMPO 0121/0124 2000 BR

WIKD

TAF not available.

WARR 28/02/2021 UTC

TAF WARR 280500Z 2806/0106 30010KT 9999 SCT020
TEMPO 2810/2812 3000 TSRA SCT017CB
BECMG 2812/2814 25006KT 6000
TEMPO 2820/0100 4000 HZ
BECMG 0100/0102 26010KT 9999

WADD 28/02/2021 UTC

TAF WADD 280500Z 2806/0106 27010KT 9999 SCT016
TEMPO 2806/2810 5000 RA FEW015CB
TEMPO 2820/0100 VRB05KT

WRRA

TAF not available.

WALL 28/02/2021 UTC

TAF WALL 280500Z 2806/2912 18005KT 9999 FEW020 BECMG 2808/2810 FEW018CB SCT018 TEMPO
2810/2813 5000 RA BECMG 2814/2816 34006KT

WSSS 28/02/2021 UTC

TAF AMD WSSS 280800Z 2808/0112 03007KT 9999 FEW015

WSAP 28/02/2021 UTC

TAF AMD WSAP 280800Z 2808/0112 03007KT 9999 FEW015

WMKK 28/02/2021 UTC

TAF WMKK 280500Z 2806/0112 29006KT 9999 FEW018
PROB30 TEMPO 2808/2812 4000 TSRA FEW017CB SCT018

WMSA 28/02/2021 UTC

TAF WMSA 280500Z 2806/0106 34006KT 9999 FEW018
TEMPO 2808/2812 28010KT 4000 TSRA FEW017CB SCT018

WMKP 28/02/2021 UTC

TAF WMKP 280500Z 2806/0106 22006KT 9999 FEW020
TEMPO 2807/2809 VRB06G18KT
BECMG 2810/2812 00000KT 8000 FEW025

WMKJ 28/02/2021 UTC

TAF AMD WMKJ 280835Z 2808/0106 04005KT 9999 FEW018
TEMPO 2808/2812 3000 TSRA FEW017CB SCT018

WMKD 28/02/2021 UTC

TAF WMKD 280500Z 2806/0106 VRB06KT 9999 FEW020
BECMG 2811/2812 36003KT FEW025

WMKB 28/02/2021 UTC

TAF WMKB 280500Z 2806/0106 30010KT 9000 FEW020
BECMG 2813/2815 VRB03KT 7000 FEW024

VTBD 28/02/2021 UTC

TAF VTBD 280500Z 2806/0112 18008KT 9000 FEW020 BECMG 2820/2822
12005KT 3000 BR BECMG 0102/0104 18008KT 9000 NSW

VTBS 28/02/2021 UTC

TAF VTBS 280500Z 2806/0112 19008KT 9000 FEW020 BECMG 2820/2822
13005KT 3000 BR BECMG 0102/0104 19008KT 9000 NSW

VTBU 28/02/2021 UTC

TAF VTBU 280500Z 2806/0106 17008KT 5000 HZ FEW020 BECMG 2811/2813
3000 BR BECMG 0102/0104 5000 HZ

VTCC 28/02/2021 UTC

TAF VTCC 280500Z 2806/0112 16005KT 7000 NSC BECMG 2809/2811 34005KT
BECMG 0104/0106 15005KT

VTSP 28/02/2021 UTC

TAF VTSP 280500Z 2806/0112 28006KT 8000 FEW020 BECMG 2814/2816
00000KT BECMG 0100/0102 10006KT BECMG 0106/0108 28008KT

VTSS 28/02/2021 UTC

TAF VTSS 280500Z 2806/0106 05008KT 9999 FEW020

VVTS 28/02/2021 UTC

TAF VVTS 280500Z 2806/0112 12008KT 9999 SCT017 SCT040 TEMPO 2806/2812
5000 TSRA BKN012 FEW015CB

VDPP 28/02/2021 UTC

TAF VDPP 280500Z 2806/2824 16010KT 9999 SCT017 TEMPO 2807/2811 SCT015
FEW017CB SCT040

VVNB 28/02/2021 UTC

TAF VVNB 280500Z 2806/0106 12006KT 4000 BR SCT010 BKN025 TEMPO
2809/2814 1200 -DZ BR SCT003 BKN015 TEMPO 2820/0102 0600 -DZ FG
BKN003 OVC015

VYYY 27/02/2021 UTC

TAF VYYY 272300Z 2800/2824 22006KT 8000 NSC BECMG 2800/2802 09004KT
3000 BR TEMPO 2802/2806 11005KT

South America

The availability of aerodrome forecasts from overseas locations is dependent on the regular international exchange of data. Some locations may at times be absent. If this problem persists, please advise webav@bom.gov.au

 back to top

SAEZ 28/02/2021 UTC

TAF SAEZ 280500Z 2806/0106 05015G25KT CAVOK TX30/2818Z TN20/2809Z
BECMG 2817/2819 09010KT
BECMG 0102/0104 05015G25KT

SAVC 28/02/2021 UTC

TAF SAVC 280500Z 2806/0106 27015G25KT CAVOK TX28/2818Z TN17/2810Z
BECMG 2807/2809 27020G35KT
BECMG 2816/2818 27020KT
TEMPO 2900/2906 29025G35KT

SCIE 28/02/2021 UTC

TAF SCIE 280400Z 2806/0106 22006KT CAVOK TX22/2818Z TN13/2811Z TEMPO
2808/2812 16004KT BECMG 2816/2818 23015KT BECMG 0102/0104
22006KT

SACO 28/02/2021 UTC

TAF SACO 280500Z 2806/0106 32005KT 9999 BKN050 TX33/2818Z
TN17/2809Z
BECMG 2814/2817 05015KT CAVOK 9999 TS SCT030 FEW040CB

SCIP 28/02/2021 UTC

TAF SCIP 280401Z 2806/0106 32015KT 9999 SCT020 BKN050
TN22/2807Z TX26/2818Z
TEMPO 2806/2808 32018G28KT 7000 -SHRA BKN015 OVC025
BECMG 2809/2811 2500 RA SHRA BKN006 OVC015
TEMPO 2821/2906 32013KT 7000 -SHRA BKN015 OVC025

SAZM 28/02/2021 UTC

TAF SAZM 280500Z 2806/0106 05015KT 5000 BR BKN007
TX26/2818Z TN18/2809Z
PROB40 2807/2810 03010KT 1500 BR BKN004
BECMG 2811/2814 05015G25KT 9999 SCT020
BECMG 2823/2901 02010KT

SAME 28/02/2021 UTC

TAF SAME 280500Z 2806/0106 14010KT 9999 TSRA BKN040 FEW045CB
TX35/2820Z TN20/2810Z
BECMG 2808/2811 VRB03KT 9999 NSW SCT035
BECMG 2816/2819 05010KT 9999 TS SCT030 FEW040CB

SUMU 28/02/2021 UTC

TAF SUMU 280530Z 2806/0106 06010KT CAVOK TX30/2818Z TN18/2809Z
PROB30 TEMPO 2806/2810 01015G25KT BECMG 2816/2818 12015KT 9999
SCT030

SAZN 28/02/2021 UTC

TAF SAZN 280500Z 2806/0106 29005KT 05015KT 9999 SCT045 FEW050CB
TX34/2820Z TN21/2810Z
PROB30 TEMPO 2806/2808 8000 -TSRA SCT030 FEW050CB
BECMG 2808/2810 25010KT CAVOK
BECMG 2823/2902 VRB04KT

SCTE 28/02/2021 UTC

TAF SCTE 280430Z 2806/0106 22005KT 4000 BR SCT002 OVC004
TN11/2807Z
TX22/2819Z
TEMPO 2807/2812 VRB02KT 0700 FG OVC002
BECMG 2813/2815 9999 NSW FEW030
BECMG 2820/2822 SCT025
BECMG 0102/0104 VRB2KT BKN007 OVC040

SCCI 28/02/2021 UTC

TAF SCCI 280450Z 2806/0106 30015G30KT CAVOK TN07/2811Z TX21/2819Z
TEMPO 2811/2815 SHRA SCT025 BKN045
BECMG 2817/2819 23018KT

SAWG 28/02/2021 UTC

TAF SAWG 280500Z 2806/0106 32010KT CAVOK TX18/2820Z TN07/2906Z
BECMG 2812/2815 25010KT
BECMG 2816/2818 23015KT 8000 RADZ SCT030 BKN040
BECMG 2900/2903 9999 NSW SCT020 BKN030

SAAR 28/02/2021 UTC

TAF SAAR 280500Z 2806/0106 09005KT CAVOK
TX34/2819Z TN21/2810Z
BECMG 2810/2812 05015KT 9999 SCT030
BECMG 2821/2823 09005KT

SAZS 28/02/2021 UTC

TAF SAZS 280500Z 2806/0106 29015KT CAVOK
TX26/2820Z TN08/2810Z
BECMG 2807/2809 27005KT
BECMG 2815/2818 29015KT
BECMG 2901/2903 29005KT

SCEL 28/02/2021 UTC

TAF SCEL 280400Z 2806/0106 16004KT CAVOK TX33/2819Z TN14/2811Z TEMPO
2808/2812 VRB02KT 7000 NSC BECMG 2814/2816 18009KT BECMG
2816/2818 21015KT BECMG 0102/0104 16004KT

SAWH 28/02/2021 UTC

TAF SAWH 280500Z 2806/0106 32005KT CAVOK TX16/2806Z TN05/2906Z
BECMG 2808/2811 VRB03KT 8000 SCT030
BECMG 2813/2815 20010KT 6000 DZRA BKN015 FEW030 BKN040
TEMPO 2816/2818 4000 SHRA BKN025 FEW035TCU OVC045
BECMG 2818/2821 9999 SCT020 BKN045
BECMG 2901/2903 VRB04KT

Guam, Japan, Korea

The availability of aerodrome forecasts from overseas locations is dependent on the regular international exchange of data. Some locations may at times be absent. If this problem persists, please advise webav@bom.gov.au

 back to top

PGUA 28/02/2021 UTC

TAF PGUA 281000Z 2810/0116 09015G20KT 9999 SCT015 QNH2987INS
TEMPO 2810/2817 09015G25KT BKN015
BECMG 2817/2818 09015G25KT 9999 SCT015 QNH2986INS
BECMG 0105/0106 08010G15KT 9999 FEW015 QNH2987INS TX30/0102Z
TN25/2819Z

PGUM 28/02/2021 UTC

TAF PGUM 280536Z 2806/0112 08013G23KT P6SM FEW025
FM280800 08010KT P6SM FEW025
FM282300 07015G23KT P6SM FEW025

PGSN 28/02/2021 UTC

TAF PGSN 280536Z 2806/0106 09016KT P6SM FEW022
FM280800 09010KT P6SM FEW025
FM282300 07015G23KT P6SM FEW025

PTRO 28/02/2021 UTC

TAF PTRO 280536Z 2806/0106 06011G18KT P6SM VCSH SCT015 SCT110
FM281800 06011KT P6SM SCT015

RJOO

28/02/2021 UTC

TAF RJOO 280506Z 2806/0112 07009KT 9999 FEW025

RJOB 28/02/2021 UTC

TAF RJOB 280508Z 2806/0112 12008KT 9999 FEW030 SCT045

RJGG 28/02/2021 UTC

TAF RJGG 280505Z 2806/0112 12012KT 9999 FEW020 SCT040 BECMG
2816/2818 36008KT BECMG 0100/0103 12014KT

RJCC 28/02/2021 UTC

TAF RJCC 280505Z 2806/0112 15010KT 9999 FEW030 BECMG 0100/0103
34020KT TEMPO 0103/0109 2000 -SHSN FEW005 BKN008 BECMG
0109/0112 2000 -SHSN FEW005 BKN008

RJSS 28/02/2021 UTC

TAF RJSS 280505Z 2806/0112 14008KT 9999 FEW040 BECMG 2808/2810
24005KT BECMG 0100/0103 12008KT

RJFK 28/02/2021 UTC

TAF RJFK 280506Z 2806/0112 10015KT 9999 FEW020 BKN035 TEMPO
2806/2809 10016G28KT

RJAA 28/02/2021 UTC

TAF RJAA 280505Z 2806/0112 17008KT 9999 FEW030 BECMG 2812/2814
34004KT BECMG 0100/0103 16013KT

RJBB 28/02/2021 UTC

TAF RJBB 280505Z 2806/0112 04007KT 9999 FEW025 SCT050

RJTT 28/02/2021 UTC

TAF RJTT 280505Z 2806/0112 16008KT 9999 FEW030 BECMG 2811/2813
02005KT BECMG 0100/0103 10006KT BECMG 0103/0106 20012KT

RJFF 28/02/2021 UTC

TAF RJFF 280506Z 2806/0112 14011KT 9999 FEW030

RJFT 28/02/2021 UTC

TAF RJFT 280505Z 2806/0112 08010KT 9999 FEW030 SCT050 TEMPO
2806/2809 10018G28KT BECMG 2816/2818 14005KT BECMG
0103/0106 20005KT

RJFU 28/02/2021 UTC

TAF RJFU 280506Z 2806/0112 30004KT 9999 FEW030 BECMG 2806/2808
13007KT

ROAH 28/02/2021 UTC

TAF ROAH 280505Z 2806/0112 30006KT 9999 FEW015 BKN030 BECMG
2809/2811 07010KT BECMG 0100/0103 32007KT

RKSS 28/02/2021 UTC

TAF RKSS 280500Z 2806/0112 04005KT 9999 SCT040 BKN080
TN05/2821Z TX10/0106Z
BECMG 2817/2818 07006KT 6000 -RA SCT012 BKN025 OVC060
BECMG 0101/0102 04010G22KT 4000 RA
TEMPO 0104/0108 2000
BECMG 0111/0112 01008KT -RA

RKSI 28/02/2021 UTC

TAF RKSI 280500Z 2806/0112 05007KT 9999 SCT030 BKN080
TN04/2821Z TX09/0105Z
BECMG 2816/2817 4000 -RA SCT012 BKN025 OVC080
BECMG 0100/0101 2000 RA
BECMG 0104/0105 03015G25KT
BECMG 0109/0110 4000 -RA

RKSM 28/02/2021 UTC

TAF RKSM 280500Z 2806/0112 18006KT 9999 BKN100 BECMG 2815/2816
12006KT 9999 SCT015 BKN030 BECMG 2818/2819 12006KT 4800 -RA
BR BKN010 OVC025 TX12/2806Z TN06/2821Z

RKPK 28/02/2021 UTC

TAF RKPK 280500Z 2806/0112 06006KT 9999 SCT030 BKN100
TN08/2821Z TX14/0106Z
BECMG 0100/0101 15008KT BKN030 OVC100
BECMG 0103/0104 18010G20KT 4800 -RA BR SCT015 OVC030

RKPC 28/02/2021 UTC

TAF AMD RKPC 280910Z 2809/0112 09017G27KT 9999 -RA BKN035 OVC080
TN14/2820Z TX20/0105Z
BECMG 2815/2816 06010KT NSW
BECMG 2821/2822 17015G25KT
BECMG 0101/0102 23015G25KT 6000 -RA
BECMG 0109/0110 25022G35KT 4000 RA SCT012 BKN030 OVC080

Indonesia, Pakistan, Singapore, India, Sri Lanka, United Arab Emirates

The availability of aerodrome forecasts from overseas locations is dependent on the regular international exchange of data. Some locations may at times be absent. If this problem persists, please advise webav@bom.gov.au

 back to top

WIII 28/02/2021 UTC

TAF WIII 280500Z 2806/0112 26010KT 9000 SCT020 TEMPO 2807/2810
29010G20KT 4000 -TSRA FEW018CB BKN020 BECMG 2812/2814 28005KT 5000 HZ
BECMG 0101/0103 29010KT 8000 NSW

WSSS 28/02/2021 UTC

TAF AMD WSSS 280800Z 2808/0112 03007KT 9999 FEW015

VCBI 28/02/2021 UTC

TAF VCBI 280500Z 2806/0112 VRB05KT CAVOK TX32/2808Z TN23/0100Z
TEMPO 0100/0102 7000

VECC 28/02/2021 UTC

TAF VECC 280500Z 2806/0112 26008KT 4500 HZ NSC
BECMG 2816/2818 20005KT 2800 HZ
BECMG 0100/0102 1400 BR FEW100
BECMG 0102/0104 2800 HZ
BECMG 0107/0109 4000 HZ NSC

VOMM 28/02/2021 UTC

TAF VOMM 280500Z 2806/0112 16005KT 6000 FEW020 SCT100
BECMG 2815/2816 VRB02KT 5000 HZ
BECMG 2821/2822 3000 BR
TEMPO 0100/0103 1500 BR
BECMG 0103/0104 27005KT 5000 HZ
BECMG 0106/0107 16005KT 6000

VOTV 28/02/2021 UTC

TAF VOTV 280500Z 2806/0112 22005KT 6000 FEW015

BECMG 2812/2813 32005KT 4500 TS HZ FEW015 FEW025CB

BECMG 2815/2816 00000KT 3500 HZ FEW015

TEMPO 2823/0103 2500 BR

BECMG 0104/0105 25005KT 4500 HZ

VABB 28/02/2021 UTC

TAF VABB 280500Z 2806/0112 29010KT 3000 FU NSC
BECMG 2809/2811 4000 FU FEW020
BECMG 2813/2815 33006KT 3000 FU
BECMG 2818/2820 03005KT 2500 HZ FEW100
BECMG 0106/0108 27010KT 3000 FU NSC

VAAH 28/02/2021 UTC

TAF VAAH 280500Z 2806/0112 31008KT 6000 NSC
BECMG 2813/2815 33003KT 4000 FU HZ
BECMG 0101/0103 36003KT 2500 HZ
BECMG 0104/0106 32008KT 6000

VILK 28/02/2021 UTC

TAF VILK 280500Z 2806/0112 32008KT 4000 HZ NSC
BECMG 2808/2810 5000 HZ
BECMG 2812/2814 VRB02KT 3000 HZ BECMG 0100/0102 2000 HZ
BECMG 0105/0107 27009KT 4000 HZ
BECMG 0108/0110 5000 HZ

VANP 28/02/2021 UTC

TAF VANP 280500Z 2806/0112 36004KT 5000 HZ FEW020 SCT025
BECMG 2813/2815 35003KT 3000 HZ FEW020 SCT100
BECMG 2818/2820 02003KT 2500 HZ NSC
BECMG 0100/0102 03002KT 2000 BR NSC
BECMG 0104/0106 05005KT 5000 HZ NSC
BECMG 0110/0112 32005KT 4000 HZ NSC

VRMM 28/02/2021 UTC

TAF VRMM 280500Z 2806/0112 27003KT 9000 FEW018TCU TEMPO 2810/2816
FEW019CB

VOHS 28/02/2021 UTC

TAF VOHS 280500Z 2806/0112 30006KT 6000 FEW020 BECMG 2818/2820
13004KT 5000 BR NSC TEMPO 0100/0103 VRB03KT 3000 BR HZ FEW020
SCT100
BECMG 0103/0105 26006KT 6000 FEW020

OPKC 28/02/2021 UTC

TAF OPKC 280930Z 2812/0118 24010G20KT 6000 NSC BECMG 2818/2820
03010KT 4000 HZ NSC TEMPO
0100/0105 04010KT 2000 FU NSC

OBBI 28/02/2021 UTC

TAF OBBI 281100Z 2812/0118 33008KT CAVOK BECMG 2815/2817 11010KT

OMAA 28/02/2021 UTC

TAF OMAA 280500Z 2806/0112 33010KT CAVOK
BECMG 2820/2822 12005KT
PROB30 0100/0105 VRB02KT 4000 HZ
BECMG 0110/0112 34008KT

OMDB 28/02/2021 UTC

TAF OMDB 280500Z 2806/0112 20005KT CAVOK
BECMG 2806/2808 29010KT
BECMG 2816/2818 12005KT
BECMG 0108/0110 33010KT

OOMS 28/02/2021 UTC

TAF OOMS 280500Z 2806/0112 01010KT 8000 NSC PROB30 TEMPO 2806/2808
SCT020 BECMG 2817/2819 24005KT BECMG 0106/0108 04015KT

OMSJ 28/02/2021 UTC

TAF OMSJ 280500Z 2806/0112 19005KT CAVOK
BECMG 2807/2809 29010KT
BECMG 2816/2818 13005KT
BECMG 0109/0111 34010KT

Malawi, Mauritius, South Africa, Zambia, Zimbabwe

The availability of aerodrome forecasts from overseas locations is dependent on the regular international exchange of data. Some locations may at times be absent. If this problem persists, please advise webav@bom.gov.au

 back to top

FIMP 28/02/2021 UTC

TAF FIMP 280505Z 2806/0112 18005KT 6000 -SHRA FEW007 BKN016
BECMG 2810/2812 12010KT 9999 SCT018

FMEE 28/02/2021 UTC

TAF FMEE 280500Z 2806/0112 13015G25KT 9999 FEW030 SCT048 TEMPO
2808/2812 07012KT BECMG 2813/2815 14010KT BECMG 0104/0105 08015G25KT

FLKK 28/02/2021 UTC

TAF FLKK 281000Z 2812/0118 VRB03KT 9000 -SHRA BKN010 FEW040CB
BECMG 2818/2820 08010KT
PROB40 TEMPO 0103/0107 09010G25KT -RA BKN009
BECMG 0109/0111 9999 BKN030

FWKI 28/02/2021 UTC

TAF FWKI 280700Z 2812/0118 12008KT 2000 -TSRA FEW023CB BKN025
BKN080 PROB30 TEMPO 2819/2821 7000 -RA FEW020 SCT022 BKN070 BECMG
0104/0106 9999 FEW007 SCT015 BKN080

FAOR 28/02/2021 UTC

TAF FAOR 281000Z 2812/0118 12008KT 9999 SCT035
TX22/2813Z TN12/0104Z
PROB30 TEMPO 2812/2816 FEW040TCU
BECMG 2816/2818 CAVOK
PROB30 TEMPO 0100/0106 BKN008
BECMG 0106/0108 SCT030

FVHA

TAF not available.

FAWK 28/02/2021 UTC

TAF FAWK 280900Z 2810/2818 12010KT 9999 SCT040
TX25/2813Z TN19/2818Z
PROB30 TEMPO 2813/2816 FEW045TCU
BECMG 2816/2818 CAVOK

FABL 28/02/2021 UTC

TAF FABL 281000Z 2812/0112 04005KT 9999 SCT030 FEW045TCU TX28/2813Z
TN15/0104Z
PROB30 TEMPO 2814/2817 -TSRA FEW045CB
PROB30 TEMPO 2817/2821 07015G25KT TS FEW045CB
BECMG 2821/2823 CAVOK
BECMG 0110/0112 SCT045 FEW050TCU

FALE 28/02/2021 UTC

TAF FALE 281000Z 2812/0118 08012KT 9999 SCT030 BKN040
TX28/0112Z TN19/0104Z BECMG 2822/2824 VRB03KT
BECMG 0109/0111 07015KT SCT035 BECMG 0116/0118 01015KT

YPCC 28/02/2021 UTC

TAF YPCC 280517Z 2806/0106
32016KT 9999 -SHRA SCT015 BKN020
INTER 2806/0106 33020G30KT 2000 SHRA BKN008
PROB30 TEMPO 2806/0106 VRB25G35KT 1000 TSRA BKN010 SCT020CB
RMK
T 30 30 28 28 Q 1005 1004 1005 1007

United States (includes Hawaii) and Mexican emergency/alternates

The availability of aerodrome forecasts from overseas locations is dependent on the regular international exchange of data. Some locations may at times be absent. If this problem persists, please advise webav@bom.gov.au

 back to top

PHNL 28/02/2021 UTC

TAF PHNL 280906Z 2809/0112 06015G21KT P6SM FEW020 SCT045
FM282000 05020G30KT P6SM FEW025 SCT045
FM010500 06015KT P6SM FEW025 SCT045

PHLI 28/02/2021 UTC

TAF PHLI 280542Z 2806/0106 06016G24KT P6SM VCSH SCT025 BKN045
FM281000 06020KT 6SM -SHRA BKN025 BKN035
FM281500 06020G26KT P6SM VCSH BKN025 BKN035

PHOG 28/02/2021 UTC

TAF PHOG 280542Z 2806/0106 05014G24KT P6SM VCSH FEW030 BKN050
FM282100 05022G32KT P6SM VCSH SCT025 BKN045
AMD LTD TO VIS AND WIND 2809/2816

PHTO 28/02/2021 UTC

TAF PHTO 281018Z 2810/0106 VRB06KT 6SM SHRA BR BKN025 BKN060
TEMPO 2810/2812 3SM SHRA BR
FM282000 07009KT 6SM -SHRA BKN030 OVC045

PKMJ 28/02/2021 UTC

TAF PKMJ 280536Z 2806/0106 06015KT P6SM VCSH SCT020 SCT050 BKN120

KLAX 28/02/2021 UTC

TAF KLAX 280857Z 2809/0112 08005KT P6SM SKC
FM282100 25008KT P6SM SKC
FM010400 VRB03KT P6SM SKC

KONT 28/02/2021 UTC

TAF KONT 280539Z 2806/0112 05006KT P6SM SKC
FM280700 04011G18KT P6SM SKC
FM281100 04015G25KT P6SM SKC
FM282100 VRB04KT P6SM SKC

KPMD 28/02/2021 UTC

TAF KPMD 280538Z 2806/0106 30006KT P6SM SKC
FM281100 07010KT P6SM SKC
FM281700 07015G25KT P6SM SKC
FM010000 11008KT P6SM SKC

KSAN 28/02/2021 UTC

TAF KSAN 280910Z 2809/0112 VRB04KT P6SM SKC
FM282000 29009KT P6SM SKC
FM010200 VRB04KT P6SM SKC

KLAS 28/02/2021 UTC

TAF KLAS 280908Z 2809/0112 35015G23KT P6SM FEW120
FM281800 02012G22KT P6SM SKC
FM010100 05008KT P6SM SKC
FM010400 22006KT P6SM SKC

KOAK 28/02/2021 UTC

TAF KOAK 280538Z 2806/0112 33005KT P6SM FEW200 WS015/02030KT
FM280900 VRB04KT P6SM SKC WS015/01025KT
FM281600 VRB03KT P6SM FEW250
FM282100 29007KT P6SM FEW250
FM010300 35004KT P6SM SKC
FM010600 VRB03KT P6SM SKC

KSFO 28/02/2021 UTC

TAF KSFO 280855Z 2809/0112 VRB04KT P6SM SKC WS015/01025KT
FM281500 VRB04KT P6SM SKC
FM282000 04006KT P6SM SKC
FM010000 30008KT P6SM SKC
FM010400 29005KT P6SM SKC
FM010700 VRB03KT P6SM SKC

KSMF 28/02/2021 UTC

TAF KSMF 280527Z 2806/0106 32005KT P6SM SKC

KSCK 28/02/2021 UTC

TAF KSCK 280527Z 2806/0106 30005KT P6SM SKC

KFAT 28/02/2021 UTC

TAF KFAT 280539Z 2806/0106 VRB04KT P6SM FEW250
FM282100 17008KT P6SM FEW250
FM010100 00000KT P6SM FEW250

KJFK 28/02/2021 UTC

TAF KJFK 280836Z 2809/0112 VRB02KT P6SM BKN200
FM281500 08005KT P6SM OVC070
FM281700 09008KT P6SM -RA SCT015 OVC060
FM281900 10008KT 5SM -RA BR SCT007 OVC015
FM282100 10008KT 3SM -RA BR SCT004 OVC007
FM010300 08007KT 2SM -RA BR OVC004
FM010900 29004KT 2SM -RA BR OVC003

KPHL 28/02/2021 UTC

TAF KPHL 280835Z 2809/0112 VRB04KT P6SM BKN150
FM281200 07004KT P6SM OVC060
FM281500 07005KT 4SM -RA BR OVC025
FM281700 07006KT 1 1/2SM RA BR OVC005
FM010200 VRB03KT 1SM -SHRA BR OVC004

KPIT 28/02/2021 UTC

TAF KPIT 280857Z 2809/0112 10005KT P6SM OVC150
FM281200 12005KT 5SM -RA BR OVC010
FM281400 16008KT 2SM -RA BR OVC007
FM281900 17008KT 5SM -RA BR OVC007
FM010300 25010KT 5SM -RA OVC007
FM010600 26010KT 5SM -RA OVC010

KDEN 28/02/2021 UTC

TAF AMD KDEN 281021Z 2810/0112 VRB05KT P6SM BKN150 BKN220
FM281600 36009KT P6SM FEW090 SCT150 BKN220
FM282300 VRB05KT P6SM FEW090 SCT150
FM010300 20009KT P6SM FEW150

KMCI 28/02/2021 UTC

TAF KMCI 280531Z 2806/0106 23012G20KT P6SM VCSH OVC020
FM281000 23015KT 6SM BR OVC020
FM281200 32012G20KT P6SM OVC015
FM281800 33012G20KT P6SM SCT015 SCT030
FM010000 34007KT P6SM SKC

KDFW 28/02/2021 UTC

TAF KDFW 280907Z 2809/0112 20012KT P6SM OVC015
TEMPO 2813/2817 BKN009
FM281700 31014KT 5SM BR VCTS BKN009CB
FM282100 36018KT P6SM VCSH BKN015
FM282300 35015G25KT P6SM OVC040
FM010500 35008KT P6SM OVC100

KAUS 28/02/2021 UTC

TAF AMD KAUS 280813Z 2808/0112 17007KT 6SM BR OVC025
FM281200 18005KT 6SM BR OVC009
FM281700 18007KT P6SM OVC015 PROB30 2818/2822 5SM -SHRA
FM282200 07007KT P6SM OVC040 PROB30 2823/0104 6SM -SHRA
FM010400 01010KT P6SM OVC020

KELP 28/02/2021 UTC

TAF KELP 280544Z 2806/0106 25012G20KT P6SM BKN250 WS020/26038KT
FM281000 27009KT P6SM SKC
FM281900 25015G23KT P6SM SKC
FM282300 26020G30KT P6SM SKC

KIAH 28/02/2021 UTC

TAF KIAH 280858Z 2809/0112 17008KT P6SM OVC014
FM281500 16007KT P6SM OVC011
FM281800 17009KT P6SM BKN020
FM282100 16007KT P6SM VCSH SCT015 BKN028
FM010200 16007KT P6SM VCSH OVC009

KSAT 28/02/2021 UTC

TAF KSAT 280954Z 2810/0112 17008KT 5SM BR OVC009
TEMPO 2810/2814 1 1/2SM BR
FM281400 18005KT 5SM BR OVC007
FM281800 18008KT P6SM OVC012 PROB30 2820/2822 5SM -SHRA
FM282200 07007KT P6SM OVC040 PROB30 2823/0104 6SM -SHRA
FM010400 01010KT P6SM OVC020

KTUS 28/02/2021 UTC

TAF KTUS 280520Z 2806/0106 23005KT P6SM SKC
FM281700 30011G17KT P6SM SKC
FM282000 32023G33KT P6SM FEW250
FM010300 30007KT P6SM SKC

MMCU 28/02/2021 UTC

TAF MMCU 280454Z 2806/0106 24005KT P6SM SCT080 SCT250
FM281800 24016KT P6SM SCT030 BKN080 BKN250
FM010500 30006KT P6SM SCT250

MMHO 28/02/2021 UTC

TAF MMHO 280305Z 2806/0106 00000KT P6SM BKN120
FM281800 23010KT P6SM BKN090 BKN120 OVC250
FM010500 00000KT P6SM BKN120

MMLT 28/02/2021 UTC

TAF MMLT 280327Z 2806/0106 00000KT P6SM BKN250
FM281800 02010KT P6SM BKN120 OVC250
FM010500 16005KT P6SM BKN250

MMSD 28/02/2021 UTC

TAF MMSD 280327Z 2806/0106 00000KT P6SM BKN250
FM281800 15012KT P6SM BKN140 OVC250
FM010500 00000KT P6SM BKN250

Papua New Guinea, Southwest Pacific

The availability of aerodrome forecasts from overseas locations is dependent on the regular international exchange of data. Some locations may at times be absent. If this problem persists, please advise webav@bom.gov.au

 back to top

NWWW 28/02/2021 UTC

TAF NWWW 280500Z 2806/0106 14015KT 9999 SCT050 BECMG 2808/2810
VRB02KT BECMG 2822/2824 15015KT

NFFN 28/02/2021 UTC

TAF NFFN 280501Z 2806/0106
35006KT 9999 SCT025 SCT045
PROB40 TEMPO 2808/2812 5000 TSRA BKN015 FEW018CB
PROB40 TEMPO 2812/2824 5000 SHRA BKN015
PROB40 TEMPO 0100/0106 5000 TSRA BKN015 FEW018CB

NFNA 28/02/2021 UTC

TAF NFNA 280501Z 2806/0106
34009KT 9999 -RA FEW007 SCT018 BKN045
TEMPO 2806/2818 5000 TSRA BKN015 FEW018CB
PROB40 TEMPO 2818/0106 34015G25KT 5000 TSRA BKN015 FEW018CB

NFTF 28/02/2021 UTC

TAF NFTF 280501Z 2806/0106
11007KT 9999 SCT018 BKN100
PROB30 TEMPO 2809/2818 5000 SHRA BKN015
PROB40 TEMPO 2818/0106 3000 TSRA BKN015 FEW017CB

NSTU 28/02/2021 UTC

TAF NSTU 280542Z 2806/0106 VRB06KT P6SM VCSH FEW020 SCT040 BKN100

NVVV 28/02/2021 UTC

TAF COR NVVV 281000Z 2812/0112 12005KT 9999 FEW020
INTER 2812/2818 9000 -SHRA BKN018

NCRG 28/02/2021 UTC

TAF NCRG 280501Z 2806/0106
28006KT 9999 SCT018
PROB40 TEMPO 2814/0102 5000 TSRA BKN015 FEW017CB

NTAA 28/02/2021 UTC

TAF NTAA 280500Z 2806/0112 20008KT 9999 FEW020 SCT150 BKN250 PROB30
TEMPO 2806/2817 3000 SHRA FEW016CB SCT018 BKN050

NTTG

TAF not available.

NTTO

TAF not available.

NSFA 28/02/2021 UTC

TAF NSFA 280501Z 2806/0106
03010KT 9999 SCT020 BKN100
PROB40 TEMPO 2806/0103 5000 TSRA BKN015 FEW017CB

ANYN

TAF not available.

AGGH 28/02/2021 UTC

TAF AGGH 280520Z 2806/0106 29015KT 9999 FEW018 BKN100

PROB40 INTER 2806/2812 5000 TSSH SCT015 FEW016CB BKN025

T 30 28 26 25 Q 1004 1006 1007 1005

AGGM 28/02/2021 UTC

TAF AGGM 280520Z 2806/0106 27015KT 9999 FEW018 BKN100

PROB40 INTER 2806/2812 5000 TSSH SCT015 FEW016CB BKN025

Q 1006 1008 1009 1007

AGGN 28/02/2021 UTC

TAF AGGN 280520Z 2806/0106 29015KT 9999 FEW018 BKN100

PROB40 INTER 2806/2812 5000 TSSH SCT015 FEW015CB BKN025

Q 1006 1008 1009 1007

AYPY 27/02/2021 UTC

TAF AMD AYPY 271330Z 2718/2818 32015G26KT 9999 -RADZ SCT030 BKN130
FM272200 34015G26KT 9999 -SHRA SCT018 BKN130
INTER 2718/2721 4000 +RADZ BKN010 T 25 25 29 32 Q 1004 1005
1007 1006
---------------------------------------------------
--------------

AYNZ

TAF not available.

AYMD

TAF not available.

AYMH

TAF not available.

AYTA

TAF not available.

PKMJ 28/02/2021 UTC

TAF PKMJ 280536Z 2806/0106 06015KT P6SM VCSH SCT020 SCT050 BKN120

NGTA 28/02/2021 UTC

TAF NGTA 280501Z 2806/0106
08006KT 9999 SCT019

PTRO 28/02/2021 UTC

TAF PTRO 280536Z 2806/0106 06011G18KT P6SM VCSH SCT015 SCT110
FM281800 06011KT P6SM SCT015

YLHI 28/02/2021 UTC

TAF YLHI 281023Z 2812/0112
30007KT 9999 -SHRA SCT010 BKN020
FM010100 27008KT 9999 -SHRA SCT010 BKN030
TEMPO 2812/0106 3000 SHRA BKN008
RMK
T 23 23 23 24 Q 1011 1010 1009 1010

YSNF 28/02/2021 UTC

TAF YSNF 280521Z 2806/0106
10008KT 9999 SCT020
INTER 2812/2821 6000 -SHRA BKN015
RMK
T 23 22 21 21 Q 1012 1013 1013 1012

Indonesia, Timor Leste, Papua New Guinea

The availability of aerodrome forecasts from overseas locations is dependent on the regular international exchange of data. Some locations may at times be absent. If this problem persists, please advise webav@bom.gov.au

 back to top

WAAA 28/02/2021 UTC

TAF WAAA 280500Z 2806/0112 29010KT 9000 SCT018 TEMPO 2806/2810 4000 TSRA FEW017CB
BECMG 2811/2813 11005KT 8000

WAMM 28/02/2021 UTC

TAF AMD WAMM 280500Z 2806/0112 33008KT SCT021
TEMPO 2807/2809 5000 RA
BECMG 2812/14 VRB03KT

WAMP

TAF not available.

WAJJ 28/02/2021 UTC

TAF WAJJ 280500Z 2806/0106 29010KT 9999 SCT012
TEMPO 2806/2809 VCSH FEW011CB FEW013
TEMPO 2812/2816 6000 -RA BKN010
BECMG 2813/2815 00000KT

WAPP 28/02/2021 UTC

TAF WAPP 280500Z 2806/0106 34008KT 9999 SCT018

WABB 28/02/2021 UTC

TAF WABB 280500Z 2806/0112 03006KT 9999 SCT018
PROB40 TEMPO 2806/2808 5000 RA FEW017CB
BECMG 2810/2812 00000KT

WPDL

TAF not available.

WATT 28/02/2021 UTC

TAF WATT 280500Z 2806/0106 20005KT 8000 SCT016

WIII 28/02/2021 UTC

TAF WIII 280500Z 2806/0112 26010KT 9000 SCT020 TEMPO 2807/2810
29010G20KT 4000 -TSRA FEW018CB BKN020 BECMG 2812/2814 28005KT 5000 HZ
BECMG 0101/0103 29010KT 8000 NSW

WIHH 28/02/2021 UTC

TAF WIHH 280500Z 2806/0106 28010KT 6000 SCT020 TEMPO 2810/2813 4000 -RA BECMG 2815/2817
21004KT 5000 HZ

WIMM 28/02/2021 UTC

TAF WIMM 280500Z 2806/0106 36010KT 9999 SCT017
BECMG 2812/2814 23004KT 4000 HZ
BECMG 0102/0104 33008KT 9000

WARR 28/02/2021 UTC

TAF WARR 280500Z 2806/0106 30010KT 9999 SCT020
TEMPO 2810/2812 3000 TSRA SCT017CB
BECMG 2812/2814 25006KT 6000
TEMPO 2820/0100 4000 HZ
BECMG 0100/0102 26010KT 9999

WADD 28/02/2021 UTC

TAF WADD 280500Z 2806/0106 27010KT 9999 SCT016
TEMPO 2806/2810 5000 RA FEW015CB
TEMPO 2820/0100 VRB05KT

AYPY 27/02/2021 UTC

TAF AMD AYPY 271330Z 2718/2818 32015G26KT 9999 -RADZ SCT030 BKN130
FM272200 34015G26KT 9999 -SHRA SCT018 BKN130
INTER 2718/2721 4000 +RADZ BKN010 T 25 25 29 32 Q 1004 1005
1007 1006
---------------------------------------------------
--------------

AYNZ

TAF not available.

AYMH

TAF not available.

AYMD

TAF not available.

AYHK

TAF not available.

AYTK

TAF not available.

AYVN

TAF not available.

AYWK

TAF not available.

AYGA

TAF not available.

AYDU

TAF not available.

AYMS

TAF not available.

AYRB

TAF not available.

AYTB

TAF not available.

AYKI

TAF not available.

AYKT

TAF not available.

AYBK

TAF not available.

AYKM

TAF not available.

AYKY

TAF not available.

AYMO

TAF not available.

AYKV

TAF not available.

Accessing this Service

By entering this site, you acknowledge that this information is produced solely for use by the aviation industry, and you are aware that any information for the purposes of flight planning should be obtained from Airservices Australia.